Wichita Mid Continent Airport
KICT : rendu visible

Aérodrome :











RETROUVEZ-NOUS SUR...

 
LOGIN :

S'inscrire | Disclaimer

   EN    FR    IT 

 









Légende :    VFR   VFR Marginal   IFR   IFR Intensif   IFR Très Intensif
Visi : 
Plafond : 
>= 8 km
>= 3000ft
5 à 8 km
1000 à 3000 ft
1500m à 5 km
500 à 1000 ft
800 à 1500m
200 à 500 ft
< 800m
< 200 ft
Symboles :   Orages  Brouillard  Fortes neiges  Fortes précipitations  Vent > 20 kt






- Altitude de l'aérodrome : 1333 ft
- Code IATA : ICT


KICT - Wichita Mid Continent

DERNIER METAR :
  • 260353Z 34010KT 6SM -RA BR OVC009 16/14 A2992 RMK AO2 CIG 007V013 SLP123 P0003 T01610144

METARs EXPIRÉS :
  • 260253Z 34012KT 10SM -RA OVC011 17/14 A2990 RMK AO2 RAB42 SLP118 P0000 60000 T01670139 51014
  • 260153Z 35012KT 10SM OVC013 17/14 A2988 RMK AO2 SLP112 T01720144

TAF KICT
Valide du 26 à 00h jusqu'au 27 à 00h UTC


252320Z 2600/2624 34012G20KT P6SM VCSH BKN020 BKN040 OVC130
FM260600 35012KT P6SM VCSH OVC015
FM261400 33011KT P6SM BKN020
FM261900 34010KT P6SM BKN035
FIR KZKC / Amérique du Nord



MET'MAP, la Météo Aéronautique d'un coup d'oeil ! - Copyright ORBIFLY Décembre 2007 - Disclaimer

ORBIFLY MET'MAP TEAM :

Programmation & Développement : Alexandra Zaïnal
Sur une idée originale de : Baudouin d'Aumeries
Assistance à la programmation : Marc-Olivier Méhu
Soutien technique & logistique : Manuel Goepfert

Contact : metmap@orbifly.com




SOURCES & CREDITS :

   NOAA       Earth
Advisory